Time;durP1;ratioP1;P1;durP2;ratioP2;P2;SDS_P1;SDS_P2;PMS_P1;PMS_P2;Temp;Humidity;BMP_temperature;BMP_pressure;BME280_temperature;BME280_humidity;BME280_pressure;Samples;Min_cycle;Max_cycle;Signal;HPM_P1;HPM_P2
2022/05/06 00:01:07;;;;;;;16.50;8.75;;;10.60;99.90;;;;;;5033493;28;20045;-85
2022/05/06 00:03:33;;;;;;;17.05;8.98;;;10.60;99.90;;;;;;5032886;28;20195;-85
2022/05/06 00:05:58;;;;;;;12.38;9.07;;;10.60;99.90;;;;;;5016220;28;20459;-84
2022/05/06 00:08:25;;;;;;;15.00;9.15;;;10.60;99.90;;;;;;5032981;28;20045;-85
2022/05/06 00:10:51;;;;;;;13.80;7.93;;;10.60;99.90;;;;;;5016181;28;20519;-85
2022/05/06 00:13:16;;;;;;;17.42;8.93;;;10.70;99.90;;;;;;5016462;28;20029;-85
2022/05/06 00:15:42;;;;;;;17.35;8.48;;;10.60;99.90;;;;;;5016468;28;20051;-85
2022/05/06 00:18:08;;;;;;;17.08;8.57;;;10.70;99.90;;;;;;5032944;28;20038;-85
2022/05/06 00:20:34;;;;;;;14.02;8.75;;;10.80;99.90;;;;;;5033040;28;20453;-85
2022/05/06 00:23:00;;;;;;;16.58;9.15;;;10.80;99.90;;;;;;5032893;28;20062;-85
2022/05/06 00:25:27;;;;;;;31.45;9.15;;;10.70;99.90;;;;;;5016348;28;20072;-85
2022/05/06 00:27:54;;;;;;;18.45;9.88;;;10.70;99.90;;;;;;5016413;28;20026;-84
2022/05/06 00:30:21;;;;;;;17.25;9.05;;;10.70;99.90;;;;;;5016388;28;20033;-85
2022/05/06 00:32:47;;;;;;;14.73;8.48;;;10.70;99.90;;;;;;5015985;28;20109;-84
2022/05/06 00:35:12;;;;;;;14.68;8.75;;;10.70;99.90;;;;;;5015880;28;20034;-85
2022/05/06 00:37:38;;;;;;;21.02;9.57;;;10.80;99.90;;;;;;5016172;28;20041;-85
2022/05/06 00:40:04;;;;;;;21.45;9.68;;;10.80;99.90;;;;;;5032589;28;20080;-84
2022/05/06 00:42:30;;;;;;;17.70;9.30;;;10.70;99.90;;;;;;5016236;28;20025;-86
2022/05/06 00:44:55;;;;;;;13.05;9.20;;;10.80;99.90;;;;;;5015988;28;20025;-85
2022/05/06 00:47:22;;;;;;;19.35;9.02;;;10.80;99.90;;;;;;5032431;28;20037;-85
2022/05/06 00:49:49;;;;;;;11.35;8.43;;;10.70;99.90;;;;;;5016265;28;20534;-84
2022/05/06 00:52:19;;;;;;;12.88;9.02;;;10.70;99.90;;;;;;5032356;28;20099;-85
2022/05/06 00:54:45;;;;;;;12.10;8.68;;;10.70;99.90;;;;;;5032464;28;20643;-85
2022/05/06 00:57:11;;;;;;;15.20;9.27;;;10.60;99.90;;;;;;5015571;28;20037;-85
2022/05/06 01:00:17;;;;;;;16.00;8.20;;;10.70;99.90;;;;;;5015820;28;20061;-85
2022/05/06 01:02:23;;;;;;;20.27;9.98;;;10.70;99.90;;;;;;5032115;28;20025;-85
2022/05/06 01:04:51;;;;;;;11.30;8.10;;;10.60;99.90;;;;;;5015567;28;20440;-85
2022/05/06 01:07:19;;;;;;;17.60;8.40;;;10.60;99.90;;;;;;5014951;28;20477;-84
2022/05/06 01:09:49;;;;;;;16.10;8.93;;;10.60;99.90;;;;;;5015611;28;20033;-84
2022/05/06 01:12:15;;;;;;;11.63;8.90;;;10.60;99.90;;;;;;5015469;28;20128;-85
2022/05/06 01:14:41;;;;;;;16.75;9.82;;;10.50;99.90;;;;;;5031911;28;20063;-85
2022/05/06 01:17:17;;;;;;;16.38;9.55;;;10.50;99.90;;;;;;5031622;28;20033;-84
2022/05/06 01:19:43;;;;;;;14.48;8.48;;;10.50;99.90;;;;;;5015081;28;20749;-85
2022/05/06 01:22:09;;;;;;;19.40;9.40;;;10.50;99.90;;;;;;5031726;28;20033;-85
2022/05/06 01:24:35;;;;;;;12.40;8.65;;;10.50;99.90;;;;;;5031816;28;20025;-85
2022/05/06 01:27:09;;;;;;;15.95;9.82;;;10.40;99.90;;;;;;5031785;28;20033;-84
2022/05/06 01:29:38;;;;;;;19.80;10.15;;;10.40;99.90;;;;;;5015446;28;20662;-85
2022/05/06 01:32:04;;;;;;;19.95;10.15;;;10.30;99.90;;;;;;5015421;28;20037;-85
2022/05/06 01:34:32;;;;;;;16.00;9.25;;;10.30;99.90;;;;;;5015656;28;20029;-85
2022/05/06 01:37:03;;;;;;;14.65;10.20;;;10.30;99.90;;;;;;5031800;28;20029;-85
2022/05/06 01:39:32;;;;;;;17.77;10.20;;;10.30;99.90;;;;;;5031836;28;20041;-85
2022/05/06 01:42:08;;;;;;;17.27;10.57;;;10.30;99.90;;;;;;5031820;28;20033;-85
2022/05/06 01:44:41;;;;;;;22.20;10.20;;;10.20;99.90;;;;;;5033057;28;20030;-85
2022/05/06 01:47:26;;;;;;;15.18;10.77;;;10.10;99.90;;;;;;5019477;28;20025;-85
2022/05/06 01:49:58;;;;;;;18.73;10.68;;;10.10;99.90;;;;;;5035800;28;20037;-85
2022/05/06 01:52:25;;;;;;;15.38;10.70;;;10.10;99.90;;;;;;5035472;28;20035;-85
2022/05/06 01:54:58;;;;;;;15.48;10.00;;;10.10;99.90;;;;;;5019345;28;20029;-85
2022/05/06 01:57:25;;;;;;;16.98;10.10;;;10.10;99.90;;;;;;5035746;28;20068;-84
2022/05/06 01:59:51;;;;;;;17.65;10.32;;;10.10;99.90;;;;;;5035499;28;20049;-85
2022/05/06 02:02:22;;;;;;;15.23;9.48;;;10.10;99.90;;;;;;5019922;28;20022;-85
2022/05/06 02:07:38;;;;;;;19.85;9.98;;;10.10;99.90;;;;;;5035679;28;20036;-85
2022/05/06 02:10:04;;;;;;;17.02;10.55;;;10.10;99.90;;;;;;5018893;28;20124;-85
2022/05/06 02:12:35;;;;;;;16.50;9.98;;;10.10;99.90;;;;;;5019122;28;20071;-85
2022/05/06 02:15:10;;;;;;;16.30;9.82;;;10.00;99.90;;;;;;5019569;28;20029;-86
2022/05/06 02:17:59;;;;;;;17.55;10.77;;;10.10;99.90;;;;;;5030288;28;20103;-85
2022/05/06 02:20:30;;;;;;;16.55;9.90;;;10.00;99.90;;;;;;5035376;28;20025;-86
2022/05/06 02:23:15;;;;;;;17.73;10.02;;;10.00;99.90;;;;;;5035436;28;20162;-85
2022/05/06 02:25:54;;;;;;;15.48;10.65;;;10.10;99.90;;;;;;5020136;28;20033;-85
2022/05/06 02:28:33;;;;;;;16.40;10.70;;;10.00;99.90;;;;;;5020211;28;20108;-85
2022/05/06 02:33:50;;;;;;;16.92;10.20;;;10.00;99.90;;;;;;5035296;28;20061;-85
2022/05/06 02:36:25;;;;;;;15.10;11.30;;;9.90;99.90;;;;;;5019573;28;20461;-85
2022/05/06 02:38:51;;;;;;;17.55;10.73;;;9.90;99.90;;;;;;5018237;28;20717;-85
2022/05/06 02:41:17;;;;;;;16.77;11.13;;;9.90;99.90;;;;;;5034323;28;20037;-85
2022/05/06 02:43:49;;;;;;;22.02;11.32;;;9.90;99.90;;;;;;5018732;28;20017;-85
2022/05/06 02:46:15;;;;;;;17.58;11.15;;;10.00;99.90;;;;;;5017401;28;20029;-85
2022/05/06 02:48:41;;;;;;;17.95;11.35;;;9.90;99.90;;;;;;5017405;28;20598;-85
2022/05/06 02:51:10;;;;;;;22.30;10.88;;;10.00;99.90;;;;;;5018052;28;20033;-85
2022/05/06 02:53:38;;;;;;;18.35;10.98;;;10.00;99.90;;;;;;5017724;28;20492;-85
2022/05/06 02:56:04;;;;;;;18.17;11.25;;;10.00;99.90;;;;;;5017608;28;20029;-85
2022/05/06 02:58:39;;;;;;;16.25;10.25;;;10.00;99.90;;;;;;5019263;28;20400;-85
2022/05/06 03:01:05;;;;;;;17.65;11.40;;;10.00;99.90;;;;;;5034289;28;20026;-85
2022/05/06 03:03:34;;;;;;;19.30;11.77;;;9.90;99.90;;;;;;5034256;28;20040;-85
2022/05/06 03:06:05;;;;;;;16.65;10.57;;;10.00;99.90;;;;;;5018519;28;20489;-86
2022/05/06 03:08:31;;;;;;;16.58;11.32;;;10.00;99.90;;;;;;5017655;28;20036;-85
2022/05/06 03:10:58;;;;;;;16.52;11.52;;;10.00;99.90;;;;;;5017496;28;20128;-85
2022/05/06 03:13:24;;;;;;;21.88;10.65;;;9.90;99.90;;;;;;5017463;28;20035;-85
2022/05/06 03:15:56;;;;;;;25.38;12.85;;;9.90;99.90;;;;;;5018196;28;20192;-86
2022/05/06 03:18:22;;;;;;;19.67;11.82;;;9.90;99.90;;;;;;5017245;28;20065;-85
2022/05/06 03:20:47;;;;;;;16.13;11.23;;;9.90;99.90;;;;;;5017235;28;20036;-85
2022/05/06 03:23:14;;;;;;;23.95;11.07;;;9.70;99.90;;;;;;5016938;28;20071;-84
2022/05/06 03:25:40;;;;;;;17.83;11.60;;;9.70;99.90;;;;;;5017472;28;20060;-86
2022/05/06 03:28:09;;;;;;;18.50;11.43;;;9.60;99.90;;;;;;5033776;28;20068;-85
2022/05/06 03:30:44;;;;;;;19.23;11.43;;;9.50;99.90;;;;;;5017225;28;20029;-85
2022/05/06 03:33:42;;;;;;;16.58;11.02;;;9.40;99.90;;;;;;5017172;28;20377;-85
2022/05/06 03:36:21;;;;;;;15.82;11.75;;;9.30;99.90;;;;;;5019137;28;20044;-85
2022/05/06 03:38:56;;;;;;;18.63;11.80;;;9.20;99.90;;;;;;5018410;28;20042;-85
2022/05/06 03:41:25;;;;;;;16.15;10.82;;;9.10;99.90;;;;;;5017704;28;20033;-85
2022/05/06 03:43:52;;;;;;;21.85;11.40;;;9.00;99.90;;;;;;5017404;28;20362;-86
2022/05/06 03:46:21;;;;;;;21.92;12.32;;;8.90;99.90;;;;;;5033805;28;20037;-85
2022/05/06 03:48:47;;;;;;;18.23;11.60;;;8.80;99.90;;;;;;5017409;28;20033;-85
2022/05/06 03:51:22;;;;;;;24.92;12.63;;;8.80;99.90;;;;;;5016678;28;20053;-85
2022/05/06 03:53:55;;;;;;;20.48;11.75;;;8.80;99.90;;;;;;5017135;28;20065;-85
2022/05/06 03:56:23;;;;;;;21.58;11.45;;;8.70;99.90;;;;;;5016668;28;20064;-82
2022/05/06 03:59:12;;;;;;;18.77;11.15;;;8.70;99.90;;;;;;5015201;28;20451;-82
2022/05/06 04:01:42;;;;;;;19.20;12.25;;;8.70;99.90;;;;;;5032073;28;20029;-82
2022/05/06 04:04:14;;;;;;;21.30;12.35;;;8.60;99.90;;;;;;5016537;28;20032;-82
2022/05/06 04:06:40;;;;;;;22.63;11.27;;;8.50;99.90;;;;;;5015463;28;20029;-82
2022/05/06 04:09:06;;;;;;;25.92;11.45;;;8.50;99.90;;;;;;5015892;28;20075;-82
2022/05/06 04:11:36;;;;;;;23.27;12.25;;;8.50;99.90;;;;;;5016834;28;20145;-82
2022/05/06 04:14:05;;;;;;;21.23;11.43;;;8.40;99.90;;;;;;5032561;28;20112;-81
2022/05/06 04:16:34;;;;;;;19.17;12.23;;;8.40;99.90;;;;;;5016729;28;20055;-81
2022/05/06 04:19:03;;;;;;;21.70;11.65;;;8.40;99.90;;;;;;5016197;28;20429;-81
2022/05/06 04:24:16;;;;;;;18.13;12.27;;;8.40;99.90;;;;;;5031736;28;20029;-81
2022/05/06 04:26:42;;;;;;;21.60;12.35;;;8.40;99.90;;;;;;5032084;28;20025;-81
2022/05/06 04:29:09;;;;;;;19.27;12.27;;;8.30;99.90;;;;;;5014448;28;20032;-82
2022/05/06 04:31:35;;;;;;;18.90;11.75;;;8.30;99.90;;;;;;5031250;28;20029;-82
2022/05/06 04:34:07;;;;;;;16.55;10.73;;;8.40;99.90;;;;;;5031100;28;20477;-82
2022/05/06 04:36:40;;;;;;;15.40;10.60;;;8.40;99.90;;;;;;5031466;28;20116;-82
2022/05/06 04:39:06;;;;;;;;;;;8.40;99.90;;;;;;5011377;28;20068;-82
2022/05/06 04:41:38;;;;;;;;;;;8.40;99.90;;;;;;5046950;28;20016;-81
2022/05/06 04:44:05;;;;;;;18.83;11.35;;;8.50;99.90;;;;;;5047592;28;19913;-83
2022/05/06 04:46:34;;;;;;;19.58;11.95;;;8.60;99.90;;;;;;5015243;28;20055;-81
2022/05/06 04:49:01;;;;;;;20.73;10.70;;;8.60;99.90;;;;;;5015350;28;20043;-81
2022/05/06 04:51:27;;;;;;;15.35;10.77;;;8.70;99.90;;;;;;5014993;28;20037;-82
2022/05/06 04:53:55;;;;;;;27.35;11.65;;;8.80;99.90;;;;;;5015156;28;20026;-82
2022/05/06 04:56:24;;;;;;;15.25;10.30;;;9.00;99.90;;;;;;5031357;28;20489;-82
2022/05/06 04:58:54;;;;;;;18.40;11.70;;;9.10;99.90;;;;;;5031649;28;20037;-82
2022/05/06 05:01:30;;;;;;;17.50;10.50;;;9.10;99.90;;;;;;5031631;28;20025;-82
2022/05/06 05:03:59;;;;;;;17.88;10.35;;;9.20;99.90;;;;;;5015240;28;20026;-82
2022/05/06 05:06:27;;;;;;;18.35;10.55;;;9.30;99.90;;;;;;5031163;28;20033;-82
2022/05/06 05:08:53;;;;;;;16.95;10.38;;;9.40;99.90;;;;;;5015140;28;20048;-82
2022/05/06 05:11:19;;;;;;;16.88;10.43;;;9.50;99.90;;;;;;5015050;28;20033;-82
2022/05/06 05:13:53;;;;;;;16.08;9.77;;;9.60;99.90;;;;;;5015853;28;20041;-82
2022/05/06 05:16:27;;;;;;;21.45;11.55;;;9.60;99.90;;;;;;5016333;28;20440;-82
2022/05/06 05:18:53;;;;;;;19.27;10.77;;;9.70;99.90;;;;;;5016417;28;20033;-82
2022/05/06 05:21:19;;;;;;;23.88;10.95;;;9.90;99.90;;;;;;5019035;28;20065;-82
2022/05/06 05:23:46;;;;;;;14.25;9.98;;;10.00;99.90;;;;;;5018820;28;20393;-81
2022/05/06 05:26:12;;;;;;;22.08;10.15;;;10.10;99.90;;;;;;5034472;28;20029;-82
2022/05/06 05:28:40;;;;;;;19.02;9.88;;;10.20;99.90;;;;;;5034693;28;20017;-83
2022/05/06 05:31:07;;;;;;;16.50;8.77;;;10.20;99.90;;;;;;5034827;28;20036;-82
2022/05/06 05:33:35;;;;;;;19.05;9.65;;;10.30;99.90;;;;;;5018485;28;20033;-82
2022/05/06 05:36:01;;;;;;;14.73;9.25;;;10.40;99.90;;;;;;5014473;28;20040;-82
2022/05/06 05:38:27;;;;;;;17.77;8.18;;;10.50;99.90;;;;;;5018288;28;20444;-82
2022/05/06 05:40:54;;;;;;;16.25;8.82;;;10.50;99.90;;;;;;5034333;28;20400;-82
2022/05/06 05:48:54;;;;;;;13.68;8.38;;;10.70;99.90;;;;;;5034190;28;20060;-82
2022/05/06 05:51:21;;;;;;;17.42;7.90;;;10.80;99.90;;;;;;5018490;28;20037;-82
2022/05/06 05:53:52;;;;;;;15.85;8.00;;;10.80;99.90;;;;;;5018994;28;20022;-82
2022/05/06 05:56:19;;;;;;;10.02;7.53;;;10.90;99.90;;;;;;5014010;28;20037;-82
2022/05/06 05:58:45;;;;;;;9.02;6.60;;;10.90;99.90;;;;;;5017998;28;20111;-82
2022/05/06 06:01:16;;;;;;;12.20;7.60;;;11.00;99.90;;;;;;5018667;28;20476;-82
2022/05/06 06:03:42;;;;;;;14.45;7.18;;;11.10;99.90;;;;;;5034205;28;20044;-82
2022/05/06 06:06:09;;;;;;;11.95;7.07;;;11.20;99.90;;;;;;5018274;28;20408;-82
2022/05/06 06:08:36;;;;;;;12.43;7.30;;;11.30;99.90;;;;;;5018084;28;20113;-82
2022/05/06 06:11:05;;;;;;;11.35;6.13;;;11.30;99.90;;;;;;5018691;28;20029;-82
2022/05/06 06:13:37;;;;;;;10.48;6.10;;;11.40;99.90;;;;;;5018711;28;20049;-82
2022/05/06 06:16:05;;;;;;;17.65;6.20;;;11.50;99.90;;;;;;5017878;28;20057;-82
2022/05/06 06:18:32;;;;;;;12.88;7.18;;;11.60;99.90;;;;;;5017782;28;20113;-82
2022/05/06 06:21:00;;;;;;;9.13;6.22;;;11.70;99.90;;;;;;5017892;28;20029;-82
2022/05/06 06:23:30;;;;;;;7.75;5.50;;;11.80;99.90;;;;;;5033757;28;20124;-82
2022/05/06 06:25:57;;;;;;;11.98;6.43;;;11.80;99.90;;;;;;5018376;28;20037;-82
2022/05/06 06:28:23;;;;;;;74.10;34.42;;;11.90;99.90;;;;;;5017343;28;20017;-81
2022/05/06 06:30:50;;;;;;;26.60;13.30;;;12.00;99.90;;;;;;5015904;28;20369;-82
2022/05/06 06:33:17;;;;;;;12.65;6.63;;;12.10;99.90;;;;;;5033578;28;20159;-82
2022/05/06 06:35:43;;;;;;;11.73;9.25;;;12.10;99.90;;;;;;5033499;28;20029;-82
2022/05/06 06:38:09;;;;;;;12.02;6.03;;;12.20;99.90;;;;;;5033503;28;20041;-82
2022/05/06 06:40:40;;;;;;;11.13;5.75;;;12.20;99.90;;;;;;5031711;28;20045;-82
2022/05/06 06:43:07;;;;;;;15.73;7.03;;;12.30;99.90;;;;;;5016622;28;20030;-82
2022/05/06 06:45:53;;;;;;;11.02;8.35;;;12.30;99.90;;;;;;5033021;28;20037;-82
2022/05/06 06:48:34;;;;;;;;;;;12.50;99.90;;;;;;5019572;28;20449;-82
2022/05/06 06:51:26;;;;;;;10.15;5.40;;;12.70;99.90;;;;;;5026828;28;19909;-82
2022/05/06 06:53:55;;;;;;;11.32;5.00;;;12.80;99.90;;;;;;5016704;28;20029;-81
2022/05/06 06:56:21;;;;;;;7.63;5.45;;;12.70;99.90;;;;;;5033423;28;20041;-82
2022/05/06 06:58:47;;;;;;;13.70;6.47;;;12.80;99.90;;;;;;5016224;28;20541;-82
2022/05/06 07:01:13;;;;;;;10.80;5.03;;;12.90;99.90;;;;;;5029690;28;20129;-82
2022/05/06 07:03:39;;;;;;;10.40;5.35;;;13.00;99.90;;;;;;5017233;28;20527;-81
2022/05/06 07:14:17;;;;;;;10.18;5.35;;;13.40;99.90;;;;;;5033440;28;20095;-82
2022/05/06 07:16:43;;;;;;;10.88;4.93;;;13.60;99.90;;;;;;5017069;28;20462;-82
2022/05/06 07:19:08;;;;;;;9.60;4.68;;;13.60;99.90;;;;;;5016488;28;20041;-82
2022/05/06 07:21:35;;;;;;;9.20;4.70;;;13.70;99.90;;;;;;5016836;28;20033;-81
2022/05/06 07:24:00;;;;;;;6.63;4.43;;;13.60;99.90;;;;;;5016504;28;20033;-82
2022/05/06 07:26:27;;;;;;;13.20;4.60;;;13.70;99.90;;;;;;5016443;28;20112;-82
2022/05/06 07:28:53;;;;;;;9.43;5.55;;;13.70;99.90;;;;;;5015927;28;20037;-82
2022/05/06 07:31:18;;;;;;;8.65;4.90;;;14.00;99.90;;;;;;5015643;28;20095;-82
2022/05/06 07:33:44;;;;;;;11.35;4.90;;;14.10;99.90;;;;;;5032591;28;20022;-82
2022/05/06 07:36:10;;;;;;;6.90;5.63;;;14.10;99.90;;;;;;5016389;28;20481;-81
2022/05/06 07:38:35;;;;;;;10.20;7.53;;;14.10;99.90;;;;;;5032437;28;20037;-82
2022/05/06 07:41:03;;;;;;;7.00;4.30;;;14.10;99.90;;;;;;5016197;28;20841;-82
2022/05/06 07:43:29;;;;;;;9.52;4.30;;;14.10;99.90;;;;;;5015185;28;20573;-82
2022/05/06 07:45:55;;;;;;;11.52;4.15;;;14.20;99.90;;;;;;5032377;28;20032;-82
2022/05/06 07:48:21;;;;;;;7.50;4.03;;;14.40;99.90;;;;;;5033418;28;20120;-82
2022/05/06 07:50:46;;;;;;;9.90;4.90;;;14.40;99.90;;;;;;5016067;28;20547;-81
2022/05/06 07:53:16;;;;;;;7.75;3.90;;;14.70;99.90;;;;;;5032132;28;20042;-82
2022/05/06 07:55:42;;;;;;;9.77;4.68;;;14.80;99.90;;;;;;5016189;28;20063;-81
2022/05/06 07:58:08;;;;;;;6.07;3.78;;;14.60;99.90;;;;;;5015771;28;20033;-81
2022/05/06 08:00:34;;;;;;;13.15;3.58;;;14.60;99.90;;;;;;5033567;28;20086;-82
2022/05/06 08:05:47;;;;;;;8.02;3.28;;;14.50;99.90;;;;;;5031312;28;20538;-82
2022/05/06 08:08:14;;;;;;;12.75;4.15;;;14.60;99.90;;;;;;5031787;28;20081;-82
2022/05/06 08:10:40;;;;;;;10.23;3.28;;;14.70;99.90;;;;;;5015572;28;20025;-82
2022/05/06 08:13:06;;;;;;;10.57;4.00;;;14.70;99.90;;;;;;5015475;28;20091;-81
2022/05/06 08:15:32;;;;;;;4.38;3.08;;;14.90;99.90;;;;;;5012994;28;20779;-82
2022/05/06 08:17:58;;;;;;;7.25;4.72;;;14.90;99.90;;;;;;5031233;28;20156;-81
2022/05/06 08:20:23;;;;;;;14.45;5.88;;;15.20;99.90;;;;;;5013299;28;20033;-81
2022/05/06 08:22:49;;;;;;;9.95;3.30;;;15.40;99.90;;;;;;5013039;28;20495;-81
2022/05/06 08:25:15;;;;;;;9.63;3.90;;;15.70;99.90;;;;;;5014585;28;20022;-81
2022/05/06 08:27:43;;;;;;;12.27;4.47;;;16.10;99.90;;;;;;5014664;28;20481;-81
2022/05/06 08:30:12;;;;;;;11.93;4.65;;;16.50;99.90;;;;;;5031478;28;20481;-82
2022/05/06 08:32:38;;;;;;;7.15;3.90;;;16.70;99.90;;;;;;5031624;28;20738;-82
2022/05/06 08:35:05;;;;;;;4.40;3.17;;;16.60;99.90;;;;;;5014772;28;20392;-82
2022/05/06 08:37:43;;;;;;;4.78;2.95;;;16.40;99.90;;;;;;5015082;28;20128;-82
2022/05/06 08:40:22;;;;;;;4.35;2.88;;;16.30;99.90;;;;;;5014645;28;20088;-82
2022/05/06 08:42:49;;;;;;;10.32;3.85;;;16.40;99.90;;;;;;5014778;28;20065;-81
2022/05/06 08:50:51;;;;;;;13.32;3.45;;;16.90;99.90;;;;;;5033012;28;20037;-82
2022/05/06 08:53:32;;;;;;;5.15;3.45;;;17.00;99.90;;;;;;5014230;28;20029;-82
2022/05/06 08:55:59;;;;;;;8.52;2.88;;;17.10;99.90;;;;;;5015389;28;20033;-82
2022/05/06 08:58:28;;;;;;;8.57;3.40;;;17.20;99.90;;;;;;5015095;28;20044;-82
2022/05/06 09:01:06;;;;;;;6.70;4.50;;;17.20;99.90;;;;;;5015403;28;20084;-82
2022/05/06 09:03:31;;;;;;;8.80;2.90;;;17.40;99.90;;;;;;5015352;28;20034;-82
2022/05/06 09:06:01;;;;;;;5.03;2.30;;;17.40;99.90;;;;;;5031213;28;20492;-82
2022/05/06 09:08:43;;;;;;;6.93;3.10;;;17.20;99.90;;;;;;5014197;28;20033;-82
2022/05/06 09:11:09;;;;;;;7.60;2.90;;;17.20;99.90;;;;;;5014617;28;20132;-82
2022/05/06 09:13:48;;;;;;;5.50;1.98;;;17.50;99.90;;;;;;5014517;28;20051;-82
2022/05/06 09:16:41;;;;;;;8.85;2.63;;;18.00;99.90;;;;;;5014548;28;20404;-82
2022/05/06 09:19:17;;;;;;;7.18;2.28;;;17.80;99.70;;;;;;5031975;28;20025;-82
2022/05/06 09:22:11;;;;;;;7.65;2.30;;;17.80;99.90;;;;;;5014441;28;20034;-82
2022/05/06 09:24:38;;;;;;;3.75;2.20;;;18.50;99.90;;;;;;5014122;28;20049;-82
2022/05/06 09:27:10;;;;;;;12.05;2.65;;;18.80;97.40;;;;;;5013435;28;20033;-82
2022/05/06 09:29:42;;;;;;;;;;;18.90;98.20;;;;;;5028093;28;20072;-82
2022/05/06 09:32:24;;;;;;;4.05;2.17;;;19.30;97.80;;;;;;5064060;28;19909;-82
2022/05/06 09:34:57;;;;;;;7.20;2.78;;;18.90;96.60;;;;;;5014339;28;20073;-83
2022/05/06 09:37:32;;;;;;;9.55;3.47;;;18.70;97.40;;;;;;5030602;28;20087;-83
2022/05/06 09:40:03;;;;;;;5.57;2.13;;;18.50;96.60;;;;;;5025884;28;20033;-82
2022/05/06 09:42:29;;;;;;;5.28;2.78;;;18.20;97.40;;;;;;5032643;28;20036;-81
2022/05/06 09:45:27;;;;;;;12.45;2.40;;;17.80;99.30;;;;;;5031201;28;20717;-83
2022/05/06 09:47:58;;;;;;;16.17;7.63;;;17.70;96.60;;;;;;5013727;28;20034;-82
2022/05/06 09:50:39;;;;;;;13.75;2.95;;;17.90;97.90;;;;;;5014945;28;20041;-82
2022/05/06 09:53:12;;;;;;;6.55;2.30;;;18.30;95.40;;;;;;5031115;28;20374;-82
2022/05/06 09:55:46;;;;;;;5.68;2.22;;;18.10;96.90;;;;;;5014662;28;20072;-82
2022/05/06 09:58:14;;;;;;;7.35;2.78;;;18.00;95.80;;;;;;5014539;28;20029;-82
2022/05/06 10:00:40;;;;;;;6.35;2.25;;;17.80;96.30;;;;;;5030765;28;20026;-83
2022/05/06 10:03:07;;;;;;;5.10;2.10;;;17.60;96.60;;;;;;5031468;28;20064;-82
2022/05/06 10:05:35;;;;;;;4.32;2.03;;;17.80;97.10;;;;;;5014759;28;20033;-82
2022/05/06 10:08:06;;;;;;;7.88;2.78;;;17.90;97.00;;;;;;5017642;28;20079;-82
2022/05/06 10:10:35;;;;;;;5.57;2.20;;;17.70;96.00;;;;;;5018356;28;20037;-82
2022/05/06 10:13:13;;;;;;;4.82;2.25;;;17.40;96.70;;;;;;5018144;28;20120;-82
2022/05/06 10:15:39;;;;;;;3.78;2.22;;;17.20;96.90;;;;;;5035522;28;20125;-82
2022/05/06 10:18:07;;;;;;;4.90;3.08;;;17.10;97.50;;;;;;5017052;28;20029;-82
2022/05/06 10:20:41;;;;;;;4.38;1.90;;;17.50;97.90;;;;;;5017679;28;20129;-82
2022/05/06 10:23:08;;;;;;;9.05;2.30;;;18.20;96.80;;;;;;5017687;28;20031;-83
2022/05/06 10:25:40;;;;;;;8.95;2.35;;;19.00;96.90;;;;;;5033999;28;20053;-82
2022/05/06 10:34:10;;;;;;;5.80;2.08;;;19.20;95.20;;;;;;5035505;28;20424;-82
2022/05/06 10:36:41;;;;;;;;;;;19.80;91.10;;;;;;5017923;28;20099;-83
2022/05/06 10:39:35;;;;;;;4.88;2.45;;;19.90;91.60;;;;;;5033996;28;19996;-82
2022/05/06 10:42:17;;;;;;;4.88;2.10;;;20.00;91.20;;;;;;5026646;28;20045;-83
2022/05/06 10:44:48;;;;;;;2.40;1.65;;;19.90;88.30;;;;;;5033060;28;20667;-83
2022/05/06 10:47:16;;;;;;;6.10;1.63;;;20.30;89.90;;;;;;5016468;28;20029;-82
2022/05/06 10:49:46;;;;;;;7.90;2.30;;;20.00;90.80;;;;;;5013075;28;20592;-82
2022/05/06 10:52:18;;;;;;;6.53;2.17;;;19.70;88.80;;;;;;5015307;28;20687;-83
2022/05/06 10:54:48;;;;;;;6.00;2.17;;;19.60;89.80;;;;;;5016474;28;20183;-82
2022/05/06 10:57:18;;;;;;;5.27;2.03;;;19.50;88.90;;;;;;5033009;28;20540;-81
2022/05/06 11:00:07;;;;;;;4.90;2.22;;;19.70;89.90;;;;;;5016438;28;20037;-84
2022/05/06 11:02:35;;;;;;;6.80;2.15;;;20.10;90.30;;;;;;5011607;28;20079;-82
2022/05/06 11:05:08;;;;;;;3.75;2.28;;;20.00;89.80;;;;;;5016696;28;20109;-83
2022/05/06 11:07:36;;;;;;;5.30;2.47;;;19.50;86.50;;;;;;5016427;28;20026;-83
2022/05/06 11:10:09;;;;;;;5.28;2.00;;;19.50;88.00;;;;;;5033301;28;20042;-83
2022/05/06 11:12:38;;;;;;;6.72;2.20;;;19.50;89.70;;;;;;5016522;28;20112;-83
2022/05/06 11:15:08;;;;;;;3.70;2.28;;;19.40;87.90;;;;;;5016338;28;20033;-82
2022/05/06 11:17:34;;;;;;;4.30;1.90;;;19.30;89.60;;;;;;5032356;28;20038;-83
2022/05/06 11:20:13;;;;;;;10.18;1.98;;;19.60;90.00;;;;;;5016517;28;20032;-83
2022/05/06 11:23:01;;;;;;;5.13;2.17;;;20.00;86.50;;;;;;5033307;28;20029;-83
2022/05/06 11:25:32;;;;;;;5.22;2.38;;;20.70;82.40;;;;;;5016471;28;20115;-82
2022/05/06 11:27:59;;;;;;;4.70;2.45;;;20.40;85.10;;;;;;5016505;28;20030;-82
2022/05/06 11:30:27;;;;;;;4.30;1.90;;;20.50;84.60;;;;;;5016733;28;20037;-82
2022/05/06 11:32:59;;;;;;;8.10;2.40;;;20.80;83.40;;;;;;5016226;28;20036;-83
2022/05/06 11:35:45;;;;;;;4.43;2.05;;;21.40;84.50;;;;;;5032601;28;20667;-83
2022/05/06 11:38:11;;;;;;;6.10;2.22;;;21.60;84.50;;;;;;5011958;28;20039;-82
2022/05/06 11:40:38;;;;;;;7.82;2.30;;;21.10;78.00;;;;;;5015585;28;20029;-83
2022/05/06 11:43:07;;;;;;;7.68;2.28;;;21.00;79.10;;;;;;5015955;28;20039;-83
2022/05/06 11:48:22;;;;;;;9.75;2.35;;;21.10;82.00;;;;;;5033814;28;20427;-83
2022/05/06 11:50:54;;;;;;;4.07;2.20;;;21.20;80.60;;;;;;5032778;28;20801;-83
2022/05/06 11:53:54;;;;;;;9.23;3.35;;;21.20;81.70;;;;;;5011758;28;20042;-82
2022/05/06 11:56:25;;;;;;;3.85;1.92;;;21.10;76.50;;;;;;5032428;28;20041;-83
2022/05/06 11:58:52;;;;;;;;;;;20.80;82.10;;;;;;5015629;28;20076;-82
2022/05/06 12:01:44;;;;;;;10.75;2.72;;;20.20;82.40;;;;;;5031632;28;20013;-83
2022/05/06 12:04:10;;;;;;;8.02;2.40;;;20.00;80.00;;;;;;5013724;28;20045;-82
2022/05/06 12:06:47;;;;;;;3.03;2.28;;;19.90;83.20;;;;;;5016013;28;20021;-83
2022/05/06 12:09:16;;;;;;;5.70;2.35;;;20.40;81.00;;;;;;5015878;28;20036;-82
2022/05/06 12:11:43;;;;;;;4.43;2.00;;;20.90;81.30;;;;;;5015894;28;20120;-82
2022/05/06 12:14:12;;;;;;;3.33;2.03;;;20.80;79.50;;;;;;5032429;28;20075;-83
2022/05/06 12:16:53;;;;;;;8.13;2.42;;;20.60;78.50;;;;;;5033394;28;20532;-82
2022/05/06 12:19:19;;;;;;;7.32;2.35;;;20.50;79.50;;;;;;5031475;28;20046;-83
2022/05/06 12:21:45;;;;;;;4.80;2.00;;;20.30;80.60;;;;;;5015115;28;20099;-82
2022/05/06 12:24:12;;;;;;;3.92;2.10;;;20.10;79.30;;;;;;5014672;28;20029;-82
2022/05/06 12:26:38;;;;;;;4.15;1.80;;;20.20;81.80;;;;;;5032603;28;20072;-82
2022/05/06 12:29:24;;;;;;;3.75;2.13;;;20.20;80.50;;;;;;5030344;28;20029;-82
2022/05/06 12:32:00;;;;;;;10.32;2.40;;;20.20;77.00;;;;;;5027940;28;20114;-83
2022/05/06 12:34:33;;;;;;;7.55;1.88;;;20.30;77.30;;;;;;5030678;28;20029;-82
2022/05/06 12:37:20;;;;;;;4.00;2.10;;;20.40;79.90;;;;;;5014382;28;20038;-83
2022/05/06 12:39:50;;;;;;;15.95;4.05;;;20.80;82.50;;;;;;5031354;28;20038;-82
2022/05/06 12:42:18;;;;;;;4.28;2.22;;;20.90;77.60;;;;;;5015551;28;20041;-82
2022/05/06 12:44:45;;;;;;;7.80;2.85;;;20.70;74.70;;;;;;5015141;28;20021;-83
2022/05/06 12:47:13;;;;;;;3.03;1.58;;;21.00;74.20;;;;;;5031233;28;20112;-83
2022/05/06 12:49:42;;;;;;;4.22;2.60;;;21.30;77.60;;;;;;5014872;28;20794;-83
2022/05/06 12:52:08;;;;;;;6.85;2.58;;;21.80;77.00;;;;;;5015077;28;20025;-83
2022/05/06 12:54:35;;;;;;;11.20;2.65;;;21.60;77.30;;;;;;5010909;28;20578;-83
2022/05/06 12:57:03;;;;;;;5.82;2.00;;;21.00;76.60;;;;;;5015109;28;20520;-83
2022/05/06 12:59:29;;;;;;;5.78;1.85;;;20.70;76.40;;;;;;5014457;28;20028;-83
2022/05/06 13:01:55;;;;;;;7.25;2.35;;;20.70;74.70;;;;;;5015272;28;20029;-83
2022/05/06 13:04:21;;;;;;;6.28;2.03;;;21.10;76.50;;;;;;5031441;28;20049;-83
2022/05/06 13:06:47;;;;;;;4.00;1.52;;;21.50;73.70;;;;;;5015167;28;20092;-83
2022/05/06 13:09:13;;;;;;;6.57;2.08;;;22.20;74.50;;;;;;5014464;28;20033;-84
2022/05/06 13:11:39;;;;;;;5.90;1.52;;;22.80;75.30;;;;;;5015000;28;20511;-83
2022/05/06 13:14:06;;;;;;;7.32;1.50;;;23.20;73.40;;;;;;5031044;28;20029;-82
2022/05/06 13:16:34;;;;;;;5.80;3.50;;;23.10;74.20;;;;;;5014728;28;20084;-83
2022/05/06 13:18:59;;;;;;;3.72;1.70;;;23.20;72.30;;;;;;5014021;28;20489;-83
2022/05/06 13:21:25;;;;;;;7.43;2.40;;;22.70;68.60;;;;;;5010780;28;20026;-83
2022/05/06 13:23:50;;;;;;;3.85;2.38;;;22.50;68.70;;;;;;5014303;28;20033;-82
2022/05/06 13:26:16;;;;;;;3.80;1.50;;;22.70;67.70;;;;;;5031385;28;20032;-83
2022/05/06 13:28:42;;;;;;;6.15;2.00;;;22.70;68.10;;;;;;5030686;28;20034;-83
2022/05/06 13:31:08;;;;;;;2.75;1.60;;;22.70;69.50;;;;;;5014588;28;20048;-83
2022/05/06 13:33:35;;;;;;;3.50;1.48;;;22.70;71.10;;;;;;5014715;28;20389;-83